Time;durP1;ratioP1;P1;durP2;ratioP2;P2;SDS_P1;SDS_P2;PMS_P1;PMS_P2;Temp;Humidity;BMP_temperature;BMP_pressure;BME280_temperature;BME280_humidity;BME280_pressure;Samples;Min_cycle;Max_cycle;Signal;HPM_P1;HPM_P2
2022/08/08 00:01:13;;;;;;;1.67;1.30;;;;;;;;;;5087510;28;20279;-39
2022/08/08 00:04:06;;;;;;;1.45;1.25;;;;;;;;;;5054244;28;20227;-39
2022/08/08 00:07:05;;;;;;;1.98;1.55;;;;;;;;;;5054829;28;20277;-39
2022/08/08 00:09:53;;;;;;;2.70;1.02;;;;;;;;;;5055133;28;20265;-40
2022/08/08 00:12:26;;;;;;;4.18;1.20;;;;;;;;;;5054133;28;20204;-39
2022/08/08 00:15:09;;;;;;;2.20;1.33;;;;;;;;;;5054335;28;20188;-39
2022/08/08 00:17:57;;;;;;;2.72;1.25;;;;;;;;;;5054799;28;20253;-38
2022/08/08 00:20:43;;;;;;;3.50;1.08;;;;;;;;;;5085136;28;20598;-39
2022/08/08 00:23:19;;;;;;;2.58;1.33;;;;;;;;;;5054360;28;20215;-39
2022/08/08 00:25:50;;;;;;;2.90;1.38;;;;;;;;;;5054710;28;20204;-39
2022/08/08 00:28:22;;;;;;;2.80;1.25;;;;;;;;;;5054332;28;20196;-39
2022/08/08 00:31:33;;;;;;;1.65;0.98;;;;;;;;;;5053838;28;20208;-39
2022/08/08 00:37:41;;;;;;;1.13;1.00;;;;;;;;;;5053365;28;20534;-39
2022/08/08 00:40:27;;;;;;;0.80;0.65;;;;;;;;;;5052992;28;20200;-39
2022/08/08 00:43:41;;;;;;;5.38;1.10;;;;;;;;;;5036849;28;20211;-38
2022/08/08 00:46:41;;;;;;;2.05;1.08;;;;;;;;;;5036482;28;20258;-39
2022/08/08 00:50:06;;;;;;;4.53;1.23;;;;;;;;;;5036306;28;20210;-38
2022/08/08 00:53:01;;;;;;;2.30;1.05;;;;;;;;;;5036445;28;20702;-39
2022/08/08 00:55:44;;;;;;;2.47;1.50;;;;;;;;;;5013076;28;20242;-38
2022/08/08 00:58:44;;;;;;;5.93;1.40;;;;;;;;;;4996852;28;20216;-38
2022/08/08 01:01:35;;;;;;;3.67;1.45;;;;;;;;;;4996796;28;20201;-39
2022/08/08 01:04:29;;;;;;;5.78;1.30;;;;;;;;;;5002280;28;20397;-38
2022/08/08 01:07:17;;;;;;;3.30;1.58;;;;;;;;;;5016644;28;20196;-39
2022/08/08 01:10:20;;;;;;;3.45;1.50;;;;;;;;;;5016164;28;20647;-39
2022/08/08 01:13:12;;;;;;;2.47;1.60;;;;;;;;;;5016248;28;20205;-39
2022/08/08 01:15:53;;;;;;;2.38;1.30;;;;;;;;;;5000723;28;20196;-38
2022/08/08 01:18:40;;;;;;;3.58;1.38;;;;;;;;;;5049261;28;20212;-39
2022/08/08 01:21:30;;;;;;;4.63;1.52;;;;;;;;;;5055798;28;20611;-39
2022/08/08 01:24:18;;;;;;;1.52;1.10;;;;;;;;;;5057119;28;20554;-39
2022/08/08 01:27:22;;;;;;;2.35;1.27;;;;;;;;;;5056992;28;20628;-39
2022/08/08 01:30:42;;;;;;;5.13;1.33;;;;;;;;;;5057652;28;20192;-38
2022/08/08 01:33:15;;;;;;;7.53;1.80;;;;;;;;;;5057522;28;20216;-39
2022/08/08 01:36:23;;;;;;;2.25;1.00;;;;;;;;;;5057023;28;20223;-39
2022/08/08 01:39:05;;;;;;;4.95;1.38;;;;;;;;;;5056826;28;20196;-39
2022/08/08 01:41:52;;;;;;;3.92;1.45;;;;;;;;;;5056766;28;20218;-39
2022/08/08 01:44:40;;;;;;;1.85;1.20;;;;;;;;;;5056891;28;20224;-38
2022/08/08 01:47:15;;;;;;;3.53;1.52;;;;;;;;;;5056883;28;20538;-39
2022/08/08 01:50:28;;;;;;;2.58;1.20;;;;;;;;;;5056868;28;20199;-39
2022/08/08 01:54:01;;;;;;;4.13;1.30;;;;;;;;;;5074524;28;20208;-39
2022/08/08 01:57:09;;;;;;;1.85;1.30;;;;;;;;;;5072529;28;20284;-40
2022/08/08 01:59:52;;;;;;;4.40;1.50;;;;;;;;;;5039338;28;20208;-39
2022/08/08 02:03:01;;;;;;;12.05;1.55;;;;;;;;;;5057270;28;20691;-39
2022/08/08 02:05:51;;;;;;;4.90;1.40;;;;;;;;;;5056275;28;20236;-38
2022/08/08 02:09:15;;;;;;;5.88;1.25;;;;;;;;;;5075465;28;20508;-38
2022/08/08 02:11:47;;;;;;;22.30;2.28;;;;;;;;;;5074111;28;20266;-38
2022/08/08 02:14:39;;;;;;;21.40;3.22;;;;;;;;;;5041636;28;20187;-39
2022/08/08 02:17:47;;;;;;;20.67;2.15;;;;;;;;;;5056550;28;20204;-39
2022/08/08 02:20:30;;;;;;;5.35;1.40;;;;;;;;;;5040076;28;20574;-43
2022/08/08 02:23:30;;;;;;;2.95;1.33;;;;;;;;;;5042274;28;20223;-39
2022/08/08 02:26:09;;;;;;;6.35;1.70;;;;;;;;;;5039961;28;20204;-39
2022/08/08 02:28:59;;;;;;;4.90;1.92;;;;;;;;;;5040050;28;20235;-40
2022/08/08 02:32:06;;;;;;;4.90;1.63;;;;;;;;;;5055815;28;20204;-39
2022/08/08 02:34:38;;;;;;;7.85;1.65;;;;;;;;;;5055821;28;20192;-39
2022/08/08 02:37:38;;;;;;;6.43;1.58;;;;;;;;;;5075468;28;20200;-39
2022/08/08 02:40:43;;;;;;;15.60;2.00;;;;;;;;;;5041589;28;20204;-39
2022/08/08 02:43:50;;;;;;;21.60;2.05;;;;;;;;;;5039834;28;20208;-39
2022/08/08 02:47:15;;;;;;;21.15;2.53;;;;;;;;;;5056331;28;20204;-39
2022/08/08 02:50:15;;;;;;;16.60;1.90;;;;;;;;;;5055494;28;20188;-39
2022/08/08 02:53:10;;;;;;;22.00;2.38;;;;;;;;;;5039656;28;20192;-39
2022/08/08 02:55:40;;;;;;;28.17;2.47;;;;;;;;;;5055324;28;20227;-39
2022/08/08 02:58:35;;;;;;;10.10;2.08;;;;;;;;;;5056226;28;20184;-39
2022/08/08 03:01:40;;;;;;;17.08;2.30;;;;;;;;;;5055317;28;20193;-39
2022/08/08 03:04:47;;;;;;;8.60;1.90;;;;;;;;;;5054689;28;20243;-38
2022/08/08 03:08:13;;;;;;;3.28;1.88;;;;;;;;;;5055955;28;20199;-39
2022/08/08 03:11:29;;;;;;;10.32;1.70;;;;;;;;;;5054985;28;20204;-39
2022/08/08 03:14:37;;;;;;;19.58;2.20;;;;;;;;;;5086207;28;20614;-39
2022/08/08 03:17:45;;;;;;;14.25;1.73;;;;;;;;;;5055851;28;20207;-39
2022/08/08 03:20:48;;;;;;;11.40;2.13;;;;;;;;;;5088467;28;20207;-38
2022/08/08 03:23:29;;;;;;;7.50;1.70;;;;;;;;;;5088140;28;20221;-38
2022/08/08 03:26:21;;;;;;;10.23;2.25;;;;;;;;;;5054482;28;20211;-39
2022/08/08 03:28:52;;;;;;;15.95;2.28;;;;;;;;;;5038478;28;20208;-39
2022/08/08 03:34:27;;;;;;;5.72;1.90;;;;;;;;;;5055499;28;20548;-39
2022/08/08 03:36:55;;;;;;;9.13;1.85;;;;;;;;;;5073911;28;20207;-39
2022/08/08 03:39:23;;;;;;;10.18;1.85;;;;;;;;;;5074483;28;20657;-39
2022/08/08 03:41:50;;;;;;;5.50;1.90;;;;;;;;;;5058375;28;20280;-39
2022/08/08 03:44:39;;;;;;;3.67;2.03;;;;;;;;;;5074184;28;20223;-39
2022/08/08 03:47:19;;;;;;;2.92;1.88;;;;;;;;;;5074489;28;20194;-39
2022/08/08 03:49:51;;;;;;;3.03;2.00;;;;;;;;;;5074232;28;20295;-41
2022/08/08 03:52:33;;;;;;;3.83;2.47;;;;;;;;;;5074898;28;20211;-39
2022/08/08 03:55:12;;;;;;;5.03;2.30;;;;;;;;;;5074228;28;20226;-39
2022/08/08 03:58:00;;;;;;;3.60;2.10;;;;;;;;;;5074408;28;20539;-39
2022/08/08 04:00:56;;;;;;;7.18;1.70;;;;;;;;;;5060964;28;20271;-40
2022/08/08 04:03:46;;;;;;;4.38;1.98;;;;;;;;;;5074219;28;20230;-39
2022/08/08 04:06:54;;;;;;;5.65;2.00;;;;;;;;;;5074200;28;20294;-39
2022/08/08 04:09:22;;;;;;;4.53;2.28;;;;;;;;;;5073978;28;20222;-39
2022/08/08 04:11:51;;;;;;;4.05;2.20;;;;;;;;;;5073961;28;20206;-39
2022/08/08 04:14:52;;;;;;;5.82;2.00;;;;;;;;;;5077314;28;20271;-40
2022/08/08 04:17:21;;;;;;;3.80;2.38;;;;;;;;;;5083879;28;20696;-39
2022/08/08 04:20:09;;;;;;;8.27;2.15;;;;;;;;;;5082241;28;20195;-40
2022/08/08 04:22:36;;;;;;;13.57;2.72;;;;;;;;;;5081959;28;20286;-40
2022/08/08 04:25:06;;;;;;;6.93;2.10;;;;;;;;;;5083718;28;20225;-39
2022/08/08 04:27:35;;;;;;;11.65;2.65;;;;;;;;;;5083116;28;20206;-39
2022/08/08 04:30:22;;;;;;;9.40;2.58;;;;;;;;;;5081084;28;20286;-40
2022/08/08 04:32:52;;;;;;;5.72;2.60;;;;;;;;;;5074340;28;20199;-40
2022/08/08 04:35:22;;;;;;;9.57;2.30;;;;;;;;;;5081306;28;20209;-40
2022/08/08 04:37:52;;;;;;;5.53;2.67;;;;;;;;;;5093860;28;20218;-40
2022/08/08 04:40:24;;;;;;;8.75;2.72;;;;;;;;;;5065598;28;20653;-40
2022/08/08 04:42:56;;;;;;;9.95;2.78;;;;;;;;;;5104226;28;20282;-40
2022/08/08 04:45:49;;;;;;;5.60;2.55;;;;;;;;;;5107928;28;20563;-40
2022/08/08 04:48:17;;;;;;;4.65;2.78;;;;;;;;;;5103487;28;20199;-41
2022/08/08 04:50:48;;;;;;;5.18;2.33;;;;;;;;;;5070347;28;20216;-41
2022/08/08 04:53:25;;;;;;;5.03;2.50;;;;;;;;;;5060150;28;20207;-41
2022/08/08 04:56:15;;;;;;;3.03;2.30;;;;;;;;;;5056648;28;20203;-41
2022/08/08 04:58:43;;;;;;;4.88;2.10;;;;;;;;;;5069193;28;20233;-40
2022/08/08 05:01:14;;;;;;;5.13;2.30;;;;;;;;;;5093788;28;20199;-40
2022/08/08 05:03:48;;;;;;;5.60;2.33;;;;;;;;;;5067098;28;20219;-40
2022/08/08 05:06:39;;;;;;;4.05;2.42;;;;;;;;;;5104339;28;20223;-41
2022/08/08 05:09:08;;;;;;;4.93;2.10;;;;;;;;;;5079826;28;20227;-40
2022/08/08 05:11:39;;;;;;;9.00;2.28;;;;;;;;;;5077475;28;20219;-40
2022/08/08 05:14:10;;;;;;;8.30;2.50;;;;;;;;;;5081606;28;20230;-42
2022/08/08 05:16:43;;;;;;;3.35;1.98;;;;;;;;;;5082629;28;20223;-40
2022/08/08 05:19:28;;;;;;;3.15;2.20;;;;;;;;;;5081423;28;20281;-40
2022/08/08 05:22:17;;;;;;;5.47;2.58;;;;;;;;;;5088828;28;20221;-41
2022/08/08 05:24:50;;;;;;;4.18;2.92;;;;;;;;;;5096472;28;20603;-43
2022/08/08 05:27:20;;;;;;;3.63;2.10;;;;;;;;;;5069328;28;20567;-41
2022/08/08 05:29:49;;;;;;;4.65;2.40;;;;;;;;;;5074610;28;20254;-40
2022/08/08 05:32:21;;;;;;;4.50;2.05;;;;;;;;;;5083387;28;20599;-40
2022/08/08 05:34:52;;;;;;;3.67;2.20;;;;;;;;;;5060573;28;20598;-40
2022/08/08 05:37:29;;;;;;;3.72;2.03;;;;;;;;;;5073817;28;20230;-40
2022/08/08 05:40:16;;;;;;;6.13;1.95;;;;;;;;;;5075981;28;20220;-42
2022/08/08 05:42:53;;;;;;;4.25;2.20;;;;;;;;;;5080614;28;20368;-41
2022/08/08 05:45:21;;;;;;;3.15;1.55;;;;;;;;;;5064766;28;20657;-41
2022/08/08 05:48:05;;;;;;;5.47;1.58;;;;;;;;;;5077854;28;20234;-42
2022/08/08 05:50:36;;;;;;;5.95;1.95;;;;;;;;;;5074612;28;20557;-43
2022/08/08 05:53:06;;;;;;;3.85;1.90;;;;;;;;;;5074054;28;20257;-43
2022/08/08 05:55:57;;;;;;;4.07;1.70;;;;;;;;;;5077290;28;20218;-40
2022/08/08 05:58:42;;;;;;;9.43;1.73;;;;;;;;;;5082450;28;20226;-42
2022/08/08 06:01:32;;;;;;;3.42;1.70;;;;;;;;;;5095751;28;20223;-42
2022/08/08 06:04:28;;;;;;;3.10;1.60;;;;;;;;;;5081675;28;20242;-41
2022/08/08 06:06:59;;;;;;;3.83;1.30;;;;;;;;;;5094707;28;20233;-43
2022/08/08 06:09:35;;;;;;;3.70;1.45;;;;;;;;;;5071774;28;20219;-44
2022/08/08 06:12:23;;;;;;;5.70;1.42;;;;;;;;;;5055630;28;20302;-40
2022/08/08 06:15:00;;;;;;;8.38;2.83;;;;;;;;;;5065977;28;20234;-43
2022/08/08 06:17:32;;;;;;;3.35;1.65;;;;;;;;;;5055571;28;20243;-41
2022/08/08 06:20:20;;;;;;;4.05;1.33;;;;;;;;;;5074514;28;20297;-44
2022/08/08 06:22:50;;;;;;;3.55;1.58;;;;;;;;;;5063665;28;20231;-41
2022/08/08 06:25:19;;;;;;;5.82;1.60;;;;;;;;;;5109150;28;20238;-40
2022/08/08 06:28:14;;;;;;;2.17;1.17;;;;;;;;;;5075366;28;20246;-41
2022/08/08 06:30:43;;;;;;;3.03;1.20;;;;;;;;;;5059246;28;20223;-41
2022/08/08 06:33:12;;;;;;;3.42;1.35;;;;;;;;;;5074915;28;20662;-40
2022/08/08 06:35:48;;;;;;;4.28;1.27;;;;;;;;;;5075794;28;20223;-41
2022/08/08 06:38:36;;;;;;;1.92;1.10;;;;;;;;;;5074312;28;20697;-44
2022/08/08 06:41:11;;;;;;;4.13;1.35;;;;;;;;;;5074930;28;20233;-43
2022/08/08 06:43:46;;;;;;;2.38;1.02;;;;;;;;;;5094090;28;20691;-42
2022/08/08 06:46:28;;;;;;;5.03;1.27;;;;;;;;;;5076252;28;20227;-42
2022/08/08 06:48:58;;;;;;;2.10;0.80;;;;;;;;;;5094541;27;20223;-41
2022/08/08 06:51:26;;;;;;;2.55;1.10;;;;;;;;;;5094148;28;20229;-40
2022/08/08 06:54:18;;;;;;;2.15;1.20;;;;;;;;;;5054482;28;20228;-40
2022/08/08 06:56:48;;;;;;;4.18;1.35;;;;;;;;;;5085203;28;20231;-42
2022/08/08 06:59:18;;;;;;;2.35;0.98;;;;;;;;;;5081707;27;20540;-40
2022/08/08 07:02:01;;;;;;;3.17;1.10;;;;;;;;;;5078925;28;20665;-44
2022/08/08 07:04:59;;;;;;;3.15;1.05;;;;;;;;;;5082172;28;20227;-43
2022/08/08 07:07:47;;;;;;;4.15;1.20;;;;;;;;;;5062746;28;20297;-43
2022/08/08 07:10:20;;;;;;;2.45;1.17;;;;;;;;;;5071843;28;20255;-42
2022/08/08 07:13:04;;;;;;;2.72;1.10;;;;;;;;;;5072825;28;20233;-42
2022/08/08 07:15:46;;;;;;;4.57;1.27;;;;;;;;;;5072855;28;20227;-42
2022/08/08 07:19:05;;;;;;;4.10;1.30;;;;;;;;;;5058299;28;20715;-42
2022/08/08 07:21:54;;;;;;;4.22;1.15;;;;;;;;;;5107943;28;20554;-42
2022/08/08 07:24:53;;;;;;;2.10;1.05;;;;;;;;;;5058668;28;20222;-42
2022/08/08 07:27:24;;;;;;;4.20;1.10;;;;;;;;;;5058018;28;20230;-42
2022/08/08 07:30:12;;;;;;;1.67;0.90;;;;;;;;;;5081051;28;20242;-42
2022/08/08 07:32:52;;;;;;;3.13;1.02;;;;;;;;;;5080101;28;20587;-42
2022/08/08 07:35:20;;;;;;;2.88;0.90;;;;;;;;;;5087786;28;20312;-42
2022/08/08 07:37:50;;;;;;;3.05;0.90;;;;;;;;;;5087554;28;20217;-42
2022/08/08 07:40:45;;;;;;;5.00;1.23;;;;;;;;;;5075466;28;20222;-43
2022/08/08 07:43:14;;;;;;;4.40;1.20;;;;;;;;;;5094172;28;20230;-41
2022/08/08 07:45:49;;;;;;;2.13;1.10;;;;;;;;;;5094257;28;20214;-43
2022/08/08 07:48:37;;;;;;;2.22;0.90;;;;;;;;;;5072793;28;20207;-41
2022/08/08 07:51:09;;;;;;;2.15;0.85;;;;;;;;;;5071296;28;20192;-42
2022/08/08 07:54:02;;;;;;;1.92;0.90;;;;;;;;;;5073213;28;20195;-42
2022/08/08 07:56:48;;;;;;;2.05;1.05;;;;;;;;;;5058977;28;20518;-41
2022/08/08 07:59:18;;;;;;;6.85;0.95;;;;;;;;;;5073982;28;20199;-42
2022/08/08 08:01:59;;;;;;;1.48;0.88;;;;;;;;;;5057800;28;20202;-42
2022/08/08 08:04:52;;;;;;;10.77;1.13;;;;;;;;;;5059974;28;20325;-43
2022/08/08 08:07:21;;;;;;;1.63;1.00;;;;;;;;;;5057564;28;20184;-41
2022/08/08 08:10:07;;;;;;;2.47;0.80;;;;;;;;;;5073954;28;20195;-43
2022/08/08 08:12:49;;;;;;;2.33;0.60;;;;;;;;;;5074086;28;20194;-42
2022/08/08 08:15:18;;;;;;;3.63;1.05;;;;;;;;;;5050090;28;20211;-42
2022/08/08 08:17:56;;;;;;;2.17;0.90;;;;;;;;;;5061310;28;20203;-42
2022/08/08 08:20:27;;;;;;;2.97;0.82;;;;;;;;;;5073476;28;20199;-42
2022/08/08 08:22:59;;;;;;;3.92;0.90;;;;;;;;;;5080803;28;20185;-41
2022/08/08 08:25:27;;;;;;;4.22;0.90;;;;;;;;;;5077798;28;20203;-42
2022/08/08 08:28:10;;;;;;;1.13;0.65;;;;;;;;;;5096583;28;20187;-42
2022/08/08 08:30:52;;;;;;;4.00;0.80;;;;;;;;;;5064753;28;20216;-42
2022/08/08 08:33:23;;;;;;;2.28;0.88;;;;;;;;;;5085249;28;20656;-41
2022/08/08 08:35:50;;;;;;;5.57;0.80;;;;;;;;;;5073548;28;20210;-42
2022/08/08 08:38:40;;;;;;;1.05;0.70;;;;;;;;;;5074020;28;20203;-42
2022/08/08 08:41:20;;;;;;;1.13;0.60;;;;;;;;;;5072465;28;20191;-42
2022/08/08 08:43:50;;;;;;;1.25;0.73;;;;;;;;;;5073709;28;20233;-42
2022/08/08 08:46:38;;;;;;;14.68;1.40;;;;;;;;;;5060360;28;20225;-42
2022/08/08 08:49:11;;;;;;;1.65;0.73;;;;;;;;;;5057693;28;20195;-41
2022/08/08 08:51:42;;;;;;;2.53;0.70;;;;;;;;;;5051635;28;20311;-41
2022/08/08 08:54:20;;;;;;;2.10;0.75;;;;;;;;;;5057397;28;20227;-42
2022/08/08 08:56:53;;;;;;;5.82;1.60;;;;;;;;;;5072189;28;20230;-42
2022/08/08 08:59:22;;;;;;;2.08;0.70;;;;;;;;;;5056176;28;20693;-41
2022/08/08 09:02:18;;;;;;;2.83;0.70;;;;;;;;;;5058421;28;20692;-42
2022/08/08 09:04:47;;;;;;;3.63;0.60;;;;;;;;;;5070949;28;20258;-40
2022/08/08 09:07:22;;;;;;;2.47;0.70;;;;;;;;;;5071630;28;20223;-41
2022/08/08 09:10:06;;;;;;;1.88;0.60;;;;;;;;;;5071588;28;20238;-42
2022/08/08 09:12:45;;;;;;;2.70;0.82;;;;;;;;;;5056649;28;20249;-41
2022/08/08 09:15:14;;;;;;;3.00;0.80;;;;;;;;;;5072448;28;20211;-40
2022/08/08 09:18:02;;;;;;;1.85;0.80;;;;;;;;;;5072348;28;20223;-40
2022/08/08 09:20:32;;;;;;;1.88;0.70;;;;;;;;;;5071304;28;20227;-41
2022/08/08 09:23:20;;;;;;;1.00;0.73;;;;;;;;;;5073461;28;20285;-41
2022/08/08 09:26:04;;;;;;;2.65;0.98;;;;;;;;;;5071593;28;20243;-41
2022/08/08 09:28:38;;;;;;;1.60;0.70;;;;;;;;;;5053685;28;20211;-41
2022/08/08 09:31:14;;;;;;;1.02;0.63;;;;;;;;;;5072467;28;20229;-42
2022/08/08 09:33:49;;;;;;;3.60;0.75;;;;;;;;;;5072158;28;20694;-39
2022/08/08 09:36:38;;;;;;;3.83;0.82;;;;;;;;;;5072452;28;20235;-41
2022/08/08 09:39:08;;;;;;;1.60;0.73;;;;;;;;;;5072108;28;20221;-43
2022/08/08 09:42:01;;;;;;;1.27;0.70;;;;;;;;;;5072851;28;20557;-42
2022/08/08 09:45:04;;;;;;;10.13;0.80;;;;;;;;;;5085972;28;20214;-41
2022/08/08 09:47:42;;;;;;;0.98;0.55;;;;;;;;;;5073162;28;20234;-41
2022/08/08 09:50:30;;;;;;;1.73;0.70;;;;;;;;;;5067542;28;20672;-41
2022/08/08 09:53:02;;;;;;;4.70;0.70;;;;;;;;;;5062204;28;20643;-40
2022/08/08 09:55:49;;;;;;;1.10;0.50;;;;;;;;;;5057890;28;20679;-41
2022/08/08 09:58:40;;;;;;;2.92;0.80;;;;;;;;;;5070045;28;20220;-41
2022/08/08 10:01:11;;;;;;;1.98;0.63;;;;;;;;;;5075238;28;20246;-40
2022/08/08 10:04:00;;;;;;;3.40;0.50;;;;;;;;;;5074727;28;20538;-39
2022/08/08 10:06:30;;;;;;;2.22;0.60;;;;;;;;;;5071393;28;20232;-39
2022/08/08 10:08:58;;;;;;;5.32;1.30;;;;;;;;;;5076273;28;20227;-39
2022/08/08 10:11:26;;;;;;;3.33;0.80;;;;;;;;;;5076585;28;20311;-40
2022/08/08 10:14:13;;;;;;;1.98;0.85;;;;;;;;;;5068967;28;20224;-40
2022/08/08 10:17:08;;;;;;;1.63;0.70;;;;;;;;;;5056630;28;20270;-39
2022/08/08 10:19:57;;;;;;;4.50;1.50;;;;;;;;;;5055876;28;20229;-38
2022/08/08 10:22:27;;;;;;;2.47;1.10;;;;;;;;;;5056026;28;20223;-39
2022/08/08 10:25:03;;;;;;;7.25;0.80;;;;;;;;;;5056215;28;20247;-39
2022/08/08 10:27:40;;;;;;;10.65;2.58;;;;;;;;;;5056029;28;20236;-39
2022/08/08 10:30:09;;;;;;;1.75;0.50;;;;;;;;;;5060588;28;20215;-41
2022/08/08 10:32:57;;;;;;;1.20;0.60;;;;;;;;;;5075743;28;20616;-40
2022/08/08 10:35:28;;;;;;;1.42;0.50;;;;;;;;;;5074379;28;20227;-39
2022/08/08 10:38:16;;;;;;;0.68;0.52;;;;;;;;;;5075740;28;20251;-39
2022/08/08 10:40:44;;;;;;;9.00;1.88;;;;;;;;;;5074677;28;20219;-39
2022/08/08 10:43:11;;;;;;;2.13;0.50;;;;;;;;;;5075010;28;20536;-42
2022/08/08 10:45:48;;;;;;;11.05;2.13;;;;;;;;;;5075000;28;20227;-39
2022/08/08 10:48:35;;;;;;;1.80;0.63;;;;;;;;;;5075479;28;20219;-42
2022/08/08 10:51:25;;;;;;;1.67;0.50;;;;;;;;;;5076017;28;20227;-42
2022/08/08 10:54:06;;;;;;;5.28;0.90;;;;;;;;;;5074607;28;20222;-40
2022/08/08 10:56:34;;;;;;;2.20;0.75;;;;;;;;;;5075640;28;20220;-40
2022/08/08 10:59:08;;;;;;;1.65;0.60;;;;;;;;;;5075993;28;20587;-39
2022/08/08 11:01:38;;;;;;;1.67;0.60;;;;;;;;;;5075221;28;20211;-40
2022/08/08 11:04:07;;;;;;;1.15;0.50;;;;;;;;;;5071905;28;20223;-40
2022/08/08 11:06:38;;;;;;;2.13;0.63;;;;;;;;;;5074509;28;20688;-40
2022/08/08 11:09:13;;;;;;;1.63;0.60;;;;;;;;;;5073194;28;20223;-42
2022/08/08 11:11:51;;;;;;;6.18;0.73;;;;;;;;;;5072356;28;20211;-40
2022/08/08 11:14:49;;;;;;;1.77;0.52;;;;;;;;;;5073755;28;20215;-41
2022/08/08 11:17:21;;;;;;;4.57;0.65;;;;;;;;;;5074785;28;20231;-40
2022/08/08 11:20:11;;;;;;;1.33;0.40;;;;;;;;;;5072218;28;20226;-39
2022/08/08 11:22:40;;;;;;;2.95;0.57;;;;;;;;;;5073691;28;20561;-40
2022/08/08 11:25:09;;;;;;;1.75;0.75;;;;;;;;;;5073044;28;20219;-39
2022/08/08 11:27:41;;;;;;;1.60;0.63;;;;;;;;;;5073426;28;20258;-40
2022/08/08 11:30:13;;;;;;;2.70;0.57;;;;;;;;;;5074002;28;20952;-41
2022/08/08 11:32:55;;;;;;;5.85;0.88;;;;;;;;;;5074074;28;20219;-40
2022/08/08 11:35:24;;;;;;;1.35;0.50;;;;;;;;;;5074371;28;20238;-39
2022/08/08 11:38:08;;;;;;;2.20;0.57;;;;;;;;;;5075121;28;20234;-40
2022/08/08 11:40:56;;;;;;;3.83;0.73;;;;;;;;;;5074519;28;20270;-39
2022/08/08 11:43:27;;;;;;;6.13;1.10;;;;;;;;;;5074595;28;20284;-44
2022/08/08 11:46:08;;;;;;;5.00;0.85;;;;;;;;;;5074636;28;20269;-40
2022/08/08 11:48:44;;;;;;;1.73;0.80;;;;;;;;;;5073456;28;20602;-41
2022/08/08 11:51:15;;;;;;;16.85;1.80;;;;;;;;;;5071861;28;20694;-40
2022/08/08 11:54:03;;;;;;;1.80;0.60;;;;;;;;;;5071409;28;20596;-40
2022/08/08 11:56:34;;;;;;;4.57;1.02;;;;;;;;;;5072359;28;20235;-40
2022/08/08 11:59:09;;;;;;;2.80;0.60;;;;;;;;;;5072478;28;20233;-39
2022/08/08 12:01:36;;;;;;;2.63;0.88;;;;;;;;;;5074185;28;20219;-42
2022/08/08 12:04:07;;;;;;;2.13;0.47;;;;;;;;;;5072616;28;20235;-39
2022/08/08 12:06:35;;;;;;;3.13;1.00;;;;;;;;;;5073888;28;20243;-40
2022/08/08 12:09:09;;;;;;;1.75;0.60;;;;;;;;;;5072644;28;20247;-39
2022/08/08 12:11:44;;;;;;;1.77;0.70;;;;;;;;;;5070794;28;20245;-40
2022/08/08 12:14:25;;;;;;;1.33;0.77;;;;;;;;;;5092680;28;20211;-39
2022/08/08 12:16:56;;;;;;;4.80;0.70;;;;;;;;;;5054033;28;20672;-41
2022/08/08 12:19:24;;;;;;;2.15;0.50;;;;;;;;;;5054320;28;20251;-42
2022/08/08 12:22:11;;;;;;;0.90;0.45;;;;;;;;;;5054742;28;20248;-43
2022/08/08 12:24:48;;;;;;;2.45;0.80;;;;;;;;;;5068622;28;20194;-42
2022/08/08 12:27:22;;;;;;;2.60;0.70;;;;;;;;;;5074613;28;20218;-41
2022/08/08 12:29:58;;;;;;;2.72;0.82;;;;;;;;;;5079009;28;20283;-44
2022/08/08 12:32:28;;;;;;;1.60;0.73;;;;;;;;;;5080859;28;20191;-41
2022/08/08 12:34:57;;;;;;;4.07;0.60;;;;;;;;;;5094793;28;20241;-42
2022/08/08 12:37:39;;;;;;;1.50;0.63;;;;;;;;;;5094137;28;20210;-41
2022/08/08 12:40:16;;;;;;;5.07;0.98;;;;;;;;;;5092500;28;20427;-45
2022/08/08 12:42:50;;;;;;;2.35;0.90;;;;;;;;;;5094133;28;20186;-40
2022/08/08 12:45:18;;;;;;;1.98;0.60;;;;;;;;;;5093145;28;20644;-41
2022/08/08 12:48:20;;;;;;;2.42;0.75;;;;;;;;;;5090357;28;20218;-40
2022/08/08 12:51:01;;;;;;;2.30;0.70;;;;;;;;;;5076516;28;20660;-41
2022/08/08 12:53:31;;;;;;;5.32;0.70;;;;;;;;;;5073981;28;20192;-42
2022/08/08 12:56:07;;;;;;;3.13;0.60;;;;;;;;;;5071770;28;20205;-40
2022/08/08 12:58:51;;;;;;;6.05;0.80;;;;;;;;;;5071847;28;20199;-39
2022/08/08 13:01:35;;;;;;;4.38;0.70;;;;;;;;;;5073862;28;20613;-41
2022/08/08 13:04:23;;;;;;;1.52;0.70;;;;;;;;;;5071776;28;20578;-42
2022/08/08 13:07:04;;;;;;;3.42;0.70;;;;;;;;;;5070568;28;20647;-42
2022/08/08 13:09:46;;;;;;;2.97;0.77;;;;;;;;;;5071844;28;20199;-42
2022/08/08 13:12:34;;;;;;;1.75;0.50;;;;;;;;;;5071435;28;20199;-42
2022/08/08 13:15:14;;;;;;;1.30;0.85;;;;;;;;;;5074457;28;20253;-42
2022/08/08 13:17:42;;;;;;;0.90;0.52;;;;;;;;;;5077345;28;20225;-43
2022/08/08 13:20:29;;;;;;;1.52;0.50;;;;;;;;;;5077746;28;20184;-42
2022/08/08 13:22:57;;;;;;;4.72;0.70;;;;;;;;;;5076970;28;20894;-43
2022/08/08 13:25:45;;;;;;;2.47;0.80;;;;;;;;;;5077325;28;20260;-43
2022/08/08 13:28:28;;;;;;;3.70;0.88;;;;;;;;;;5077225;28;20279;-44
2022/08/08 13:31:02;;;;;;;2.33;0.93;;;;;;;;;;5077431;28;20260;-44
2022/08/08 13:33:33;;;;;;;6.22;0.75;;;;;;;;;;5077571;28;20187;-42
2022/08/08 13:36:09;;;;;;;2.53;0.60;;;;;;;;;;5077559;28;20183;-41
2022/08/08 13:38:37;;;;;;;5.88;0.80;;;;;;;;;;5077947;28;20215;-41
2022/08/08 13:41:06;;;;;;;3.60;0.68;;;;;;;;;;5075847;28;20626;-43
2022/08/08 13:43:44;;;;;;;7.18;0.80;;;;;;;;;;5073435;28;20646;-43
2022/08/08 13:46:14;;;;;;;1.33;0.55;;;;;;;;;;5051394;28;20235;-41
2022/08/08 13:48:55;;;;;;;3.65;0.88;;;;;;;;;;5057464;28;20185;-42
2022/08/08 13:51:52;;;;;;;13.45;2.25;;;;;;;;;;5057445;28;20653;-41
2022/08/08 13:54:23;;;;;;;4.38;0.85;;;;;;;;;;5057494;28;20208;-41
2022/08/08 13:57:09;;;;;;;2.85;0.65;;;;;;;;;;5057970;28;20234;-41
2022/08/08 13:59:40;;;;;;;1.65;0.63;;;;;;;;;;5057894;28;20269;-41
2022/08/08 14:02:22;;;;;;;4.80;0.80;;;;;;;;;;5075613;28;20218;-40
2022/08/08 14:05:02;;;;;;;2.40;0.80;;;;;;;;;;5069846;28;20227;-41
2022/08/08 14:07:48;;;;;;;2.42;0.70;;;;;;;;;;5078487;28;20215;-40
2022/08/08 14:10:19;;;;;;;1.85;0.55;;;;;;;;;;5077169;28;20637;-40
2022/08/08 14:13:09;;;;;;;3.45;1.52;;;;;;;;;;5085501;28;20179;-41
2022/08/08 14:16:03;;;;;;;2.17;0.47;;;;;;;;;;5097580;28;20264;-41
2022/08/08 14:18:59;;;;;;;5.88;0.82;;;;;;;;;;5097630;28;20305;-43
2022/08/08 14:21:42;;;;;;;5.10;0.70;;;;;;;;;;5096064;28;20221;-41
2022/08/08 14:24:31;;;;;;;5.28;0.80;;;;;;;;;;5097280;28;20528;-41
2022/08/08 14:26:59;;;;;;;4.05;0.93;;;;;;;;;;5097185;28;20296;-44
2022/08/08 14:29:33;;;;;;;1.23;0.60;;;;;;;;;;5083530;28;20202;-40
2022/08/08 14:32:07;;;;;;;1.13;0.65;;;;;;;;;;5077104;28;20234;-39
2022/08/08 14:34:41;;;;;;;2.35;0.80;;;;;;;;;;5084347;28;20199;-39
2022/08/08 14:37:15;;;;;;;1.23;0.50;;;;;;;;;;5085576;28;20257;-39
2022/08/08 14:39:51;;;;;;;1.70;0.55;;;;;;;;;;5086070;28;20191;-39
2022/08/08 14:42:40;;;;;;;2.42;0.75;;;;;;;;;;5080181;28;20224;-41
2022/08/08 14:45:24;;;;;;;0.82;0.40;;;;;;;;;;5084252;28;20203;-42
2022/08/08 14:48:01;;;;;;;1.73;0.63;;;;;;;;;;5086994;28;20220;-42
2022/08/08 14:50:33;;;;;;;2.25;0.60;;;;;;;;;;5082832;28;20270;-39
2022/08/08 14:53:14;;;;;;;1.85;0.52;;;;;;;;;;5082145;28;20500;-40
2022/08/08 14:55:41;;;;;;;3.17;0.50;;;;;;;;;;5084765;28;20514;-39
2022/08/08 14:58:10;;;;;;;1.42;0.50;;;;;;;;;;5087198;28;20195;-41
2022/08/08 15:00:47;;;;;;;1.35;0.70;;;;;;;;;;5078961;28;20594;-40
2022/08/08 15:03:15;;;;;;;1.55;0.40;;;;;;;;;;5076147;28;20284;-40
2022/08/08 15:05:47;;;;;;;0.88;0.40;;;;;;;;;;5076272;28;20235;-40
2022/08/08 15:08:22;;;;;;;3.97;0.80;;;;;;;;;;5076054;28;20282;-40
2022/08/08 15:11:09;;;;;;;6.03;0.95;;;;;;;;;;5076182;28;20586;-41
2022/08/08 15:13:46;;;;;;;2.22;0.57;;;;;;;;;;5076252;28;20188;-40
2022/08/08 15:16:29;;;;;;;1.35;0.68;;;;;;;;;;5077977;28;20219;-41
2022/08/08 15:19:01;;;;;;;4.75;1.00;;;;;;;;;;5076325;28;20218;-39
2022/08/08 15:21:29;;;;;;;1.23;0.65;;;;;;;;;;5075903;28;20207;-39
2022/08/08 15:23:57;;;;;;;1.20;0.60;;;;;;;;;;5075133;28;20579;-43
2022/08/08 15:26:24;;;;;;;2.50;0.68;;;;;;;;;;5075691;28;20199;-40
2022/08/08 15:28:55;;;;;;;2.28;0.60;;;;;;;;;;5073948;28;20184;-39
2022/08/08 15:31:22;;;;;;;3.88;0.70;;;;;;;;;;5075313;28;20227;-39
2022/08/08 15:34:09;;;;;;;1.48;0.60;;;;;;;;;;5075855;28;20526;-40
2022/08/08 15:36:57;;;;;;;1.45;0.50;;;;;;;;;;5075859;28;20203;-39
2022/08/08 15:39:27;;;;;;;3.40;0.43;;;;;;;;;;5069743;28;20212;-39
2022/08/08 15:41:57;;;;;;;7.68;0.80;;;;;;;;;;5061251;28;20223;-40
2022/08/08 15:44:26;;;;;;;1.85;0.57;;;;;;;;;;5057069;28;20551;-42
2022/08/08 15:46:55;;;;;;;4.50;0.60;;;;;;;;;;5055031;28;20658;-39
2022/08/08 15:49:23;;;;;;;2.53;0.90;;;;;;;;;;5068076;28;20273;-41
2022/08/08 15:51:55;;;;;;;8.60;1.25;;;;;;;;;;5072311;28;20265;-42
2022/08/08 15:54:22;;;;;;;3.47;0.75;;;;;;;;;;5075284;28;20199;-39
2022/08/08 15:57:07;;;;;;;2.95;0.65;;;;;;;;;;5075418;28;20527;-41
2022/08/08 15:59:38;;;;;;;4.00;0.70;;;;;;;;;;5074914;28;20211;-41
2022/08/08 16:02:26;;;;;;;2.70;0.80;;;;;;;;;;5075304;28;20199;-39
2022/08/08 16:05:00;;;;;;;3.58;0.50;;;;;;;;;;5075338;28;20250;-39
2022/08/08 16:07:27;;;;;;;1.42;0.32;;;;;;;;;;5075075;28;20216;-41
2022/08/08 16:10:14;;;;;;;1.02;0.50;;;;;;;;;;5075007;28;20649;-42
2022/08/08 16:13:02;;;;;;;2.80;0.57;;;;;;;;;;5075338;28;20183;-39